Time;durP1;ratioP1;P1;durP2;ratioP2;P2;SDS_P1;SDS_P2;PMS_P1;PMS_P2;Temp;Humidity;BMP_temperature;BMP_pressure;BME280_temperature;BME280_humidity;BME280_pressure;Samples;Min_cycle;Max_cycle;Signal;HPM_P1;HPM_P2
2023/03/30 00:00:26;;;;;;;28.20;12.77;;;;;;;;;;6195089;28;20076;-55
2023/03/30 00:03:48;;;;;;;31.10;15.43;;;;;;;;;;6202593;28;20101;-56
2023/03/30 00:06:49;;;;;;;28.88;12.40;;;;;;;;;;6194481;28;20138;-56
2023/03/30 00:09:53;;;;;;;22.52;11.23;;;;;;;;;;6196372;28;20100;-58
2023/03/30 00:12:55;;;;;;;25.63;11.52;;;;;;;;;;6210567;28;20095;-61
2023/03/30 00:15:55;;;;;;;23.92;11.43;;;;;;;;;;6193885;28;20168;-62
2023/03/30 00:18:56;;;;;;;23.90;10.25;;;;;;;;;;6198302;28;20042;-56
2023/03/30 00:21:56;;;;;;;22.40;11.07;;;;;;;;;;6208378;28;20049;-58
2023/03/30 00:24:57;;;;;;;23.90;11.20;;;;;;;;;;6180502;28;20572;-57
2023/03/30 00:27:59;;;;;;;23.95;11.48;;;;;;;;;;6194680;28;20061;-59
2023/03/30 00:31:00;;;;;;;21.65;11.18;;;;;;;;;;6195742;28;20137;-57
2023/03/30 00:34:00;;;;;;;26.58;11.27;;;;;;;;;;6206401;28;20074;-61
2023/03/30 00:37:02;;;;;;;23.05;11.88;;;;;;;;;;6190668;28;20564;-61
2023/03/30 00:40:08;;;;;;;28.80;12.77;;;;;;;;;;6193296;28;20060;-60
2023/03/30 00:43:10;;;;;;;23.65;11.95;;;;;;;;;;6200264;28;20416;-55
2023/03/30 00:46:11;;;;;;;25.77;11.93;;;;;;;;;;6199397;28;20041;-62
2023/03/30 00:49:12;;;;;;;22.05;12.02;;;;;;;;;;6202454;28;20051;-57
2023/03/30 00:52:18;;;;;;;25.40;12.53;;;;;;;;;;6195000;28;20054;-56
2023/03/30 00:55:24;;;;;;;28.80;11.88;;;;;;;;;;6195112;28;20062;-62
2023/03/30 00:58:25;;;;;;;30.38;13.57;;;;;;;;;;6192791;28;20051;-57
2023/03/30 01:01:27;;;;;;;40.10;16.98;;;;;;;;;;6194695;28;20038;-56
2023/03/30 01:04:28;;;;;;;39.28;17.23;;;;;;;;;;6196065;28;20061;-57
2023/03/30 01:07:31;;;;;;;35.90;14.13;;;;;;;;;;6204785;28;20050;-59
2023/03/30 01:10:33;;;;;;;36.72;16.08;;;;;;;;;;6199536;28;20038;-59
2023/03/30 01:13:40;;;;;;;21.95;10.73;;;;;;;;;;6191830;28;20065;-60
2023/03/30 01:16:47;;;;;;;23.65;11.52;;;;;;;;;;6207657;28;20052;-57
2023/03/30 01:19:50;;;;;;;25.92;11.35;;;;;;;;;;6196024;28;20092;-54
2023/03/30 01:23:26;;;;;;;26.38;12.55;;;;;;;;;;6193350;28;20060;-58
2023/03/30 01:26:36;;;;;;;22.52;11.80;;;;;;;;;;6193105;28;20057;-57
2023/03/30 01:29:37;;;;;;;25.98;10.55;;;;;;;;;;6190900;28;20046;-59
2023/03/30 01:32:52;;;;;;;21.73;10.57;;;;;;;;;;6202553;28;20489;-61
2023/03/30 01:36:02;;;;;;;22.90;10.95;;;;;;;;;;6203039;28;20050;-58
2023/03/30 01:39:20;;;;;;;21.08;11.35;;;;;;;;;;6207449;28;20056;-59
2023/03/30 01:42:50;;;;;;;26.55;10.82;;;;;;;;;;6200944;28;20050;-57
2023/03/30 01:46:00;;;;;;;23.73;10.18;;;;;;;;;;6119005;28;20050;-57
2023/03/30 01:49:22;;;;;;;22.13;10.23;;;;;;;;;;6205104;28;20056;-59
2023/03/30 01:52:30;;;;;;;25.20;12.35;;;;;;;;;;6199299;28;20042;-57
2023/03/30 01:55:40;;;;;;;19.73;10.32;;;;;;;;;;6212636;28;20137;-60
2023/03/30 01:58:50;;;;;;;22.02;9.50;;;;;;;;;;6211279;28;20150;-57
2023/03/30 02:01:59;;;;;;;16.42;8.25;;;;;;;;;;6220476;28;20054;-58
2023/03/30 02:05:03;;;;;;;17.38;8.15;;;;;;;;;;6192141;28;20061;-58
2023/03/30 02:08:08;;;;;;;18.65;8.38;;;;;;;;;;6210082;28;20489;-58
2023/03/30 02:11:10;;;;;;;16.05;8.45;;;;;;;;;;6216125;28;20053;-56
2023/03/30 02:14:14;;;;;;;17.30;8.40;;;;;;;;;;6216795;28;20034;-59
2023/03/30 02:17:24;;;;;;;15.65;7.40;;;;;;;;;;6223423;28;20060;-61
2023/03/30 02:20:27;;;;;;;18.00;8.00;;;;;;;;;;6209051;28;20042;-60
2023/03/30 02:23:32;;;;;;;22.67;9.77;;;;;;;;;;6198694;28;20142;-58
2023/03/30 02:26:35;;;;;;;17.35;8.75;;;;;;;;;;6201653;28;20056;-60
2023/03/30 02:29:39;;;;;;;21.65;10.18;;;;;;;;;;6199973;28;20066;-56
2023/03/30 02:32:45;;;;;;;16.85;9.02;;;;;;;;;;6203285;28;20041;-60
2023/03/30 02:36:22;;;;;;;19.42;10.00;;;;;;;;;;6203062;28;20039;-59
2023/03/30 02:39:33;;;;;;;16.58;9.73;;;;;;;;;;6193110;28;20058;-60
2023/03/30 02:42:45;;;;;;;16.70;8.70;;;;;;;;;;6200397;28;20555;-56
2023/03/30 02:45:46;;;;;;;;;;;;;;;;;;6214384;28;20049;-57
2023/03/30 02:48:47;;;;;;;19.25;9.80;;;;;;;;;;6220099;28;20319;-59
2023/03/30 02:52:18;;;;;;;17.13;8.88;;;;;;;;;;6200955;28;20046;-57
2023/03/30 02:55:52;;;;;;;18.17;9.57;;;;;;;;;;6197719;28;21223;-58
2023/03/30 02:59:09;;;;;;;18.83;8.57;;;;;;;;;;6193223;28;20042;-61
2023/03/30 03:02:18;;;;;;;14.27;8.23;;;;;;;;;;6197484;28;20065;-56
2023/03/30 03:05:20;;;;;;;20.85;7.85;;;;;;;;;;6200717;28;20049;-55
2023/03/30 03:08:24;;;;;;;18.63;8.30;;;;;;;;;;6195053;28;20074;-60
2023/03/30 03:11:25;;;;;;;16.45;8.20;;;;;;;;;;6197004;28;20383;-57
2023/03/30 03:14:26;;;;;;;20.30;9.38;;;;;;;;;;6202709;28;20053;-57
2023/03/30 03:17:33;;;;;;;19.77;10.05;;;;;;;;;;6202263;28;20073;-57
2023/03/30 03:20:33;;;;;;;24.02;11.73;;;;;;;;;;6212080;28;20084;-60
2023/03/30 03:23:35;;;;;;;22.05;10.88;;;;;;;;;;6217619;28;20050;-59
2023/03/30 03:26:36;;;;;;;18.27;9.73;;;;;;;;;;6196795;28;20073;-57
2023/03/30 03:29:37;;;;;;;23.98;11.68;;;;;;;;;;6208355;28;20050;-57
2023/03/30 03:32:37;;;;;;;24.23;12.27;;;;;;;;;;6194427;28;20046;-55
2023/03/30 03:35:39;;;;;;;26.52;12.90;;;;;;;;;;6196923;28;20053;-62
2023/03/30 03:38:39;;;;;;;32.55;14.35;;;;;;;;;;6196076;28;20482;-58
2023/03/30 03:41:40;;;;;;;33.58;14.88;;;;;;;;;;6197853;28;20560;-57
2023/03/30 03:44:40;;;;;;;35.60;15.63;;;;;;;;;;6195441;28;20052;-59
2023/03/30 03:47:41;;;;;;;34.58;16.17;;;;;;;;;;6197485;28;20161;-58
2023/03/30 03:50:42;;;;;;;36.70;21.63;;;;;;;;;;6198078;28;20053;-57
2023/03/30 03:53:42;;;;;;;33.88;17.10;;;;;;;;;;6200631;28;20081;-56
2023/03/30 03:56:43;;;;;;;31.77;16.63;;;;;;;;;;6197807;28;20049;-58
2023/03/30 03:59:43;;;;;;;36.33;18.20;;;;;;;;;;6197685;28;20038;-57
2023/03/30 04:02:44;;;;;;;34.75;18.50;;;;;;;;;;6194533;28;20516;-56
2023/03/30 04:05:44;;;;;;;38.17;19.33;;;;;;;;;;6218839;28;20049;-61
2023/03/30 04:08:45;;;;;;;38.67;20.00;;;;;;;;;;6200556;28;20152;-56
2023/03/30 04:11:46;;;;;;;36.72;19.00;;;;;;;;;;6197388;28;20054;-57
2023/03/30 04:14:46;;;;;;;33.47;16.77;;;;;;;;;;6197784;28;20053;-58
2023/03/30 04:17:48;;;;;;;38.70;16.73;;;;;;;;;;6206719;28;20124;-58
2023/03/30 04:20:49;;;;;;;33.85;16.02;;;;;;;;;;6214505;28;20710;-58
2023/03/30 04:23:50;;;;;;;36.63;14.82;;;;;;;;;;6206775;28;20089;-56
2023/03/30 04:26:50;;;;;;;36.13;15.93;;;;;;;;;;6215677;28;20068;-58
2023/03/30 04:29:51;;;;;;;33.85;15.70;;;;;;;;;;6196701;28;20466;-58
2023/03/30 04:33:01;;;;;;;32.17;14.90;;;;;;;;;;6195657;28;20053;-59
2023/03/30 04:36:03;;;;;;;31.67;13.90;;;;;;;;;;6188942;28;20043;-61
2023/03/30 04:39:04;;;;;;;29.57;14.80;;;;;;;;;;6192462;28;20042;-58
2023/03/30 04:42:05;;;;;;;35.70;14.73;;;;;;;;;;6194046;28;20517;-56
2023/03/30 04:45:07;;;;;;;29.80;13.43;;;;;;;;;;6192932;28;20310;-59
2023/03/30 04:48:08;;;;;;;28.70;14.27;;;;;;;;;;6191196;28;20034;-58
2023/03/30 04:51:08;;;;;;;27.40;15.55;;;;;;;;;;6193304;28;20406;-57
2023/03/30 04:54:09;;;;;;;36.60;14.68;;;;;;;;;;6203483;28;20074;-62
2023/03/30 04:57:12;;;;;;;64.47;24.63;;;;;;;;;;6194999;28;20461;-57
2023/03/30 05:00:13;;;;;;;150.73;50.00;;;;;;;;;;6200742;28;20839;-56
2023/03/30 05:03:14;;;;;;;110.57;34.40;;;;;;;;;;6197263;28;20057;-57
2023/03/30 05:06:14;;;;;;;124.78;38.20;;;;;;;;;;6195684;28;20053;-58
2023/03/30 05:09:15;;;;;;;57.13;21.25;;;;;;;;;;6190277;28;20805;-60
2023/03/30 05:12:16;;;;;;;38.80;15.48;;;;;;;;;;6194391;28;20441;-57
2023/03/30 05:15:17;;;;;;;54.38;22.23;;;;;;;;;;6195652;28;20049;-57
2023/03/30 05:18:17;;;;;;;177.23;61.63;;;;;;;;;;6196135;28;20068;-58
2023/03/30 05:21:18;;;;;;;271.50;90.22;;;;;;;;;;6190535;28;20097;-58
2023/03/30 05:24:19;;;;;;;117.60;43.75;;;;;;;;;;6192917;28;20049;-57
2023/03/30 05:27:19;;;;;;;64.90;25.33;;;;;;;;;;6191034;28;20038;-57
2023/03/30 05:30:20;;;;;;;54.58;23.27;;;;;;;;;;6191102;28;20478;-56
2023/03/30 05:33:21;;;;;;;60.28;21.98;;;;;;;;;;6191822;28;20390;-58
2023/03/30 05:36:22;;;;;;;50.03;22.00;;;;;;;;;;6193769;28;20494;-57
2023/03/30 05:39:22;;;;;;;59.28;23.73;;;;;;;;;;6195039;28;20093;-55
2023/03/30 05:42:23;;;;;;;63.00;28.88;;;;;;;;;;6192508;28;20107;-59
2023/03/30 05:45:24;;;;;;;55.70;24.75;;;;;;;;;;6193876;28;20400;-57
2023/03/30 05:48:24;;;;;;;55.55;24.90;;;;;;;;;;6191329;28;20137;-58
2023/03/30 05:51:25;;;;;;;39.67;21.60;;;;;;;;;;6196818;28;20050;-56
2023/03/30 05:54:26;;;;;;;50.97;23.88;;;;;;;;;;6194238;28;20042;-58
2023/03/30 05:57:27;;;;;;;76.43;31.40;;;;;;;;;;6217515;28;20057;-58
2023/03/30 06:00:27;;;;;;;107.53;39.92;;;;;;;;;;6198128;28;20054;-59
2023/03/30 06:03:28;;;;;;;119.03;40.20;;;;;;;;;;6194877;28;20081;-57
2023/03/30 06:06:29;;;;;;;92.50;29.30;;;;;;;;;;6213269;28;20054;-58
2023/03/30 06:09:29;;;;;;;43.33;19.77;;;;;;;;;;6205457;28;20057;-58
2023/03/30 06:12:31;;;;;;;48.65;21.42;;;;;;;;;;6195358;28;20050;-58
2023/03/30 06:15:32;;;;;;;48.45;20.40;;;;;;;;;;6195124;28;20054;-62
2023/03/30 06:18:33;;;;;;;56.93;26.60;;;;;;;;;;6192376;28;20125;-55
2023/03/30 06:21:33;;;;;;;51.80;23.80;;;;;;;;;;6192787;28;20502;-56
2023/03/30 06:24:34;;;;;;;54.42;24.77;;;;;;;;;;6193545;28;20058;-57
2023/03/30 06:27:35;;;;;;;52.35;21.98;;;;;;;;;;6195234;28;20417;-58
2023/03/30 06:30:37;;;;;;;60.88;24.13;;;;;;;;;;6215349;28;20478;-56
2023/03/30 06:33:38;;;;;;;62.75;26.23;;;;;;;;;;6205085;28;20046;-59
2023/03/30 06:36:39;;;;;;;77.72;30.35;;;;;;;;;;6201831;28;20050;-58
2023/03/30 06:39:39;;;;;;;86.95;38.00;;;;;;;;;;6194729;28;20482;-58
2023/03/30 06:42:42;;;;;;;88.93;33.05;;;;;;;;;;6197263;28;20034;-58
2023/03/30 06:45:51;;;;;;;98.00;40.63;;;;;;;;;;6193784;28;20753;-59
2023/03/30 06:48:52;;;;;;;105.65;42.47;;;;;;;;;;6197381;28;20440;-58
2023/03/30 06:51:53;;;;;;;93.05;36.95;;;;;;;;;;6199809;28;20042;-57
2023/03/30 06:54:54;;;;;;;110.57;39.85;;;;;;;;;;6199015;28;20097;-58
2023/03/30 06:57:55;;;;;;;74.25;30.33;;;;;;;;;;6207711;28;20077;-57
2023/03/30 07:00:55;;;;;;;75.68;31.92;;;;;;;;;;6199113;28;20042;-58
2023/03/30 07:03:56;;;;;;;90.65;33.80;;;;;;;;;;6198967;28;20486;-60
2023/03/30 07:06:57;;;;;;;69.50;28.05;;;;;;;;;;6194430;28;20115;-61
2023/03/30 07:09:57;;;;;;;71.00;26.15;;;;;;;;;;6194745;28;20049;-57
2023/03/30 07:12:58;;;;;;;58.97;23.55;;;;;;;;;;6196549;28;20046;-57
2023/03/30 07:15:59;;;;;;;48.08;20.33;;;;;;;;;;6195411;28;20078;-59
2023/03/30 07:18:59;;;;;;;80.85;27.55;;;;;;;;;;6195477;28;20374;-57
2023/03/30 07:22:00;;;;;;;43.80;18.10;;;;;;;;;;6199459;28;20054;-56
2023/03/30 07:25:01;;;;;;;42.55;17.13;;;;;;;;;;6192769;28;20513;-57
2023/03/30 07:28:05;;;;;;;33.58;14.02;;;;;;;;;;6195962;28;20046;-58
2023/03/30 07:31:08;;;;;;;36.03;14.52;;;;;;;;;;6197377;28;20046;-60
2023/03/30 07:34:09;;;;;;;37.15;14.90;;;;;;;;;;6194065;28;20058;-57
2023/03/30 07:37:10;;;;;;;35.00;13.43;;;;;;;;;;6193825;28;20698;-56
2023/03/30 07:40:11;;;;;;;35.63;13.52;;;;;;;;;;6194895;28;20413;-60
2023/03/30 07:43:11;;;;;;;33.35;13.15;;;;;;;;;;6195455;28;20050;-57
2023/03/30 07:46:12;;;;;;;30.77;13.10;;;;;;;;;;6195650;28;20050;-55
2023/03/30 07:49:13;;;;;;;32.35;10.65;;;;;;;;;;6196382;28;20489;-56
2023/03/30 07:52:15;;;;;;;33.87;12.03;;;;;;;;;;6196181;28;20087;-57
2023/03/30 07:55:16;;;;;;;28.17;12.30;;;;;;;;;;6197733;28;20560;-61
2023/03/30 07:58:17;;;;;;;33.53;12.20;;;;;;;;;;6195020;28;20063;-57
2023/03/30 08:01:18;;;;;;;41.47;15.63;;;;;;;;;;6198548;28;20134;-57
2023/03/30 08:04:20;;;;;;;28.60;11.23;;;;;;;;;;6195965;28;20060;-57
2023/03/30 08:07:20;;;;;;;25.20;9.88;;;;;;;;;;6196054;28;20292;-58
2023/03/30 08:10:22;;;;;;;22.55;9.13;;;;;;;;;;6197624;28;20050;-59
2023/03/30 08:13:22;;;;;;;26.17;9.88;;;;;;;;;;6197877;28;20485;-58
2023/03/30 08:16:23;;;;;;;25.00;10.45;;;;;;;;;;6218089;28;20060;-57
2023/03/30 08:19:24;;;;;;;32.95;11.90;;;;;;;;;;6194354;28;20050;-57
2023/03/30 08:22:25;;;;;;;26.23;10.57;;;;;;;;;;6198337;28;20113;-59
2023/03/30 08:25:26;;;;;;;25.00;10.38;;;;;;;;;;6194634;28;20046;-57
2023/03/30 08:28:26;;;;;;;18.60;7.35;;;;;;;;;;6193451;28;20429;-57
2023/03/30 08:31:27;;;;;;;23.70;8.05;;;;;;;;;;6194543;28;20453;-57
2023/03/30 08:34:28;;;;;;;27.40;8.10;;;;;;;;;;6195560;28;20176;-58
2023/03/30 08:37:28;;;;;;;18.52;6.60;;;;;;;;;;6194263;28;20054;-58
2023/03/30 08:40:29;;;;;;;25.25;8.80;;;;;;;;;;6195050;28;20085;-60
2023/03/30 08:43:48;;;;;;;20.00;6.85;;;;;;;;;;6195886;28;20450;-57
2023/03/30 08:46:49;;;;;;;17.35;6.07;;;;;;;;;;6194408;28;20112;-57
2023/03/30 08:50:00;;;;;;;14.60;6.03;;;;;;;;;;6194724;28;20045;-56
2023/03/30 08:53:06;;;;;;;14.45;5.75;;;;;;;;;;6190505;28;20056;-57
2023/03/30 08:56:19;;;;;;;11.57;5.40;;;;;;;;;;6190838;28;20058;-57
2023/03/30 08:59:33;;;;;;;17.00;6.25;;;;;;;;;;6190006;28;20100;-57
2023/03/30 09:02:41;;;;;;;17.05;5.72;;;;;;;;;;6192256;28;20065;-60
2023/03/30 09:05:50;;;;;;;17.23;5.53;;;;;;;;;;6194624;28;20054;-59
2023/03/30 09:08:51;;;;;;;12.30;5.20;;;;;;;;;;6195571;28;20050;-59
2023/03/30 09:12:15;;;;;;;15.83;5.70;;;;;;;;;;6191977;28;20050;-58
2023/03/30 09:15:24;;;;;;;14.45;6.45;;;;;;;;;;6196514;28;20137;-57
2023/03/30 09:18:33;;;;;;;15.90;6.00;;;;;;;;;;6204071;28;20073;-60
2023/03/30 09:21:34;;;;;;;13.07;6.05;;;;;;;;;;6193598;28;20050;-61
2023/03/30 09:24:36;;;;;;;13.10;5.60;;;;;;;;;;6203168;28;20393;-57
2023/03/30 09:28:01;;;;;;;16.23;5.72;;;;;;;;;;6206302;28;20359;-58
2023/03/30 09:31:07;;;;;;;15.18;6.03;;;;;;;;;;6179512;28;20050;-57
2023/03/30 09:34:21;;;;;;;14.57;5.45;;;;;;;;;;6191272;28;20089;-58
2023/03/30 09:37:23;;;;;;;10.60;4.88;;;;;;;;;;6194272;28;20807;-60
2023/03/30 09:40:41;;;;;;;16.23;5.10;;;;;;;;;;6193384;28;20085;-55
2023/03/30 09:43:45;;;;;;;11.60;4.80;;;;;;;;;;6198220;28;20137;-62
2023/03/30 09:46:45;;;;;;;17.80;8.80;;;;;;;;;;6205310;28;20057;-59
2023/03/30 09:49:46;;;;;;;12.40;4.75;;;;;;;;;;6203255;28;20046;-59
2023/03/30 09:53:00;;;;;;;11.07;5.43;;;;;;;;;;6191127;28;20517;-61
2023/03/30 09:56:11;;;;;;;9.70;4.30;;;;;;;;;;6191438;28;20109;-59
2023/03/30 09:59:30;;;;;;;15.38;5.18;;;;;;;;;;6192208;28;20049;-61
2023/03/30 10:02:32;;;;;;;10.35;4.80;;;;;;;;;;6190635;28;20050;-60
2023/03/30 10:05:34;;;;;;;9.95;4.03;;;;;;;;;;6194960;28;20586;-59
2023/03/30 10:08:56;;;;;;;12.73;4.85;;;;;;;;;;6186471;28;20409;-58
2023/03/30 10:11:57;;;;;;;9.88;4.25;;;;;;;;;;6192011;28;20078;-58
2023/03/30 10:15:01;;;;;;;10.60;4.00;;;;;;;;;;6194159;28;20508;-57
2023/03/30 10:18:24;;;;;;;12.13;4.55;;;;;;;;;;6195595;28;20787;-61
2023/03/30 10:21:29;;;;;;;7.97;4.03;;;;;;;;;;6206050;28;20095;-61
2023/03/30 10:24:32;;;;;;;10.57;4.00;;;;;;;;;;6210110;28;20599;-59
2023/03/30 10:27:38;;;;;;;10.00;4.80;;;;;;;;;;6199613;28;20155;-60
2023/03/30 10:30:39;;;;;;;11.82;4.15;;;;;;;;;;6198534;28;20266;-62
2023/03/30 10:33:42;;;;;;;8.07;3.57;;;;;;;;;;6195093;28;20164;-61
2023/03/30 10:36:46;;;;;;;14.15;4.00;;;;;;;;;;6199598;28;20050;-59
2023/03/30 10:39:47;;;;;;;9.25;3.75;;;;;;;;;;6198651;28;20070;-60
2023/03/30 10:42:54;;;;;;;12.90;3.67;;;;;;;;;;6193867;28;20093;-61
2023/03/30 10:45:57;;;;;;;7.10;3.63;;;;;;;;;;6199108;28;20334;-59
2023/03/30 10:49:42;;;;;;;9.63;3.80;;;;;;;;;;6199323;28;20462;-60
2023/03/30 10:53:14;;;;;;;11.98;4.32;;;;;;;;;;6189029;28;20058;-61
2023/03/30 10:56:17;;;;;;;12.50;4.55;;;;;;;;;;6195343;28;20073;-60
2023/03/30 10:59:30;;;;;;;8.45;3.90;;;;;;;;;;6193329;28;20038;-61
2023/03/30 11:02:55;;;;;;;11.80;4.72;;;;;;;;;;6196249;28;20408;-59
2023/03/30 11:06:00;;;;;;;9.98;4.45;;;;;;;;;;6198574;28;20130;-57
2023/03/30 11:09:04;;;;;;;7.40;4.03;;;;;;;;;;6196822;28;20050;-59
2023/03/30 11:12:15;;;;;;;12.55;4.53;;;;;;;;;;6197126;28;20055;-59
2023/03/30 11:15:56;;;;;;;9.88;4.45;;;;;;;;;;6198511;28;20833;-60
2023/03/30 11:19:03;;;;;;;10.30;4.70;;;;;;;;;;6184323;28;20133;-62
2023/03/30 11:22:38;;;;;;;9.02;3.90;;;;;;;;;;6194536;28;20051;-61
2023/03/30 11:25:50;;;;;;;9.10;3.92;;;;;;;;;;6197503;28;20076;-57
2023/03/30 11:29:15;;;;;;;7.90;3.58;;;;;;;;;;6193290;28;20497;-59
2023/03/30 11:32:30;;;;;;;8.13;4.07;;;;;;;;;;6196194;28;20048;-59
2023/03/30 11:35:47;;;;;;;8.85;4.22;;;;;;;;;;6194302;28;20049;-59
2023/03/30 11:39:02;;;;;;;7.35;3.83;;;;;;;;;;6196105;28;20041;-57
2023/03/30 11:42:12;;;;;;;7.93;3.70;;;;;;;;;;6199404;28;20042;-60
2023/03/30 11:45:47;;;;;;;9.57;3.90;;;;;;;;;;6192839;28;20046;-57
2023/03/30 11:49:20;;;;;;;8.30;3.38;;;;;;;;;;6194510;28;20137;-59
2023/03/30 11:52:36;;;;;;;8.82;3.95;;;;;;;;;;6150857;28;20096;-58
2023/03/30 11:55:55;;;;;;;8.70;3.92;;;;;;;;;;6178700;28;20508;-58
2023/03/30 11:59:05;;;;;;;9.13;4.05;;;;;;;;;;6180893;28;20042;-57
2023/03/30 12:02:33;;;;;;;19.52;7.35;;;;;;;;;;6180257;28;20575;-57
2023/03/30 12:05:40;;;;;;;11.50;4.88;;;;;;;;;;6179854;28;20050;-58
2023/03/30 12:09:03;;;;;;;9.48;3.95;;;;;;;;;;6183030;28;20058;-61
2023/03/30 12:12:14;;;;;;;11.93;3.55;;;;;;;;;;6184090;28;20057;-60
2023/03/30 12:15:33;;;;;;;7.85;3.70;;;;;;;;;;6179448;28;20903;-60
2023/03/30 12:18:45;;;;;;;9.55;3.90;;;;;;;;;;6181236;28;20050;-60
2023/03/30 12:22:07;;;;;;;10.50;4.25;;;;;;;;;;6181170;28;20465;-60
2023/03/30 12:25:29;;;;;;;10.55;3.40;;;;;;;;;;6179827;28;20038;-62
2023/03/30 12:28:58;;;;;;;6.57;3.50;;;;;;;;;;6181391;28;20057;-59
2023/03/30 12:31:58;;;;;;;15.52;4.13;;;;;;;;;;6182535;28;20073;-61
2023/03/30 12:34:59;;;;;;;6.95;3.10;;;;;;;;;;6179987;28;20046;-61
2023/03/30 12:38:04;;;;;;;7.50;3.35;;;;;;;;;;6179340;28;20054;-58
2023/03/30 12:41:19;;;;;;;7.22;3.05;;;;;;;;;;6181397;28;20100;-59
2023/03/30 12:44:35;;;;;;;6.30;2.70;;;;;;;;;;6178510;28;20185;-62
2023/03/30 12:47:57;;;;;;;8.80;2.78;;;;;;;;;;6179952;28;20068;-61
2023/03/30 12:51:35;;;;;;;12.35;2.80;;;;;;;;;;6181516;28;20049;-61
2023/03/30 12:54:53;;;;;;;10.73;3.30;;;;;;;;;;6179944;28;21008;-62
2023/03/30 12:57:56;;;;;;;11.32;3.05;;;;;;;;;;6182481;28;20046;-59
2023/03/30 13:01:12;;;;;;;8.48;3.33;;;;;;;;;;6181963;28;20050;-59
2023/03/30 13:04:20;;;;;;;9.00;3.17;;;;;;;;;;6177420;28;20464;-60
2023/03/30 13:07:23;;;;;;;7.03;2.70;;;;;;;;;;6181633;28;20457;-60
2023/03/30 13:10:35;;;;;;;13.85;3.47;;;;;;;;;;6179769;28;20493;-59
2023/03/30 13:13:55;;;;;;;12.35;2.88;;;;;;;;;;6180110;28;20468;-59
2023/03/30 13:16:59;;;;;;;8.45;3.40;;;;;;;;;;6182741;28;20046;-61
2023/03/30 13:20:13;;;;;;;10.13;4.32;;;;;;;;;;6183038;28;20153;-62
2023/03/30 13:23:14;;;;;;;6.40;2.90;;;;;;;;;;6181230;28;20058;-61
2023/03/30 13:26:25;;;;;;;12.38;6.63;;;;;;;;;;6183096;28;20050;-61
2023/03/30 13:29:29;;;;;;;11.32;6.18;;;;;;;;;;6180493;28;20047;-62
2023/03/30 13:32:57;;;;;;;8.18;3.17;;;;;;;;;;6179862;28;20112;-61
2023/03/30 13:36:10;;;;;;;9.00;4.97;;;;;;;;;;6173995;28;20058;-60
2023/03/30 13:39:21;;;;;;;9.82;4.55;;;;;;;;;;6180289;28;20069;-60
2023/03/30 13:42:37;;;;;;;9.68;3.30;;;;;;;;;;6181175;28;20042;-58
2023/03/30 13:45:44;;;;;;;8.82;3.67;;;;;;;;;;6176250;28;20042;-62
2023/03/30 13:49:08;;;;;;;9.70;3.65;;;;;;;;;;6177240;28;20575;-60
2023/03/30 13:52:22;;;;;;;12.27;4.53;;;;;;;;;;6179173;28;20634;-60
2023/03/30 13:55:46;;;;;;;13.75;4.47;;;;;;;;;;6177819;28;20476;-58
2023/03/30 13:59:09;;;;;;;29.65;11.55;;;;;;;;;;6180810;28;20062;-61
2023/03/30 14:02:15;;;;;;;11.10;4.63;;;;;;;;;;6179025;28;20061;-61
2023/03/30 14:05:21;;;;;;;19.88;10.48;;;;;;;;;;6155948;28;20108;-57
2023/03/30 14:08:23;;;;;;;14.23;6.30;;;;;;;;;;6179895;28;20488;-55
2023/03/30 14:11:36;;;;;;;9.57;4.40;;;;;;;;;;6174025;28;20485;-56
2023/03/30 14:14:45;;;;;;;9.52;3.97;;;;;;;;;;6177820;28;20414;-59
2023/03/30 14:17:49;;;;;;;11.10;4.47;;;;;;;;;;6180363;28;20053;-59
2023/03/30 14:20:52;;;;;;;9.77;4.65;;;;;;;;;;6182907;28;20049;-57
2023/03/30 14:23:54;;;;;;;10.70;4.38;;;;;;;;;;6191405;28;20442;-61
2023/03/30 14:27:20;;;;;;;9.70;4.45;;;;;;;;;;6175979;28;20116;-57
2023/03/30 14:30:23;;;;;;;19.15;7.82;;;;;;;;;;6178810;28;20096;-59
2023/03/30 14:33:25;;;;;;;14.13;6.20;;;;;;;;;;6177348;28;20069;-67
2023/03/30 14:36:25;;;;;;;9.45;4.22;;;;;;;;;;6177435;28;20173;-61
2023/03/30 14:39:28;;;;;;;11.90;6.65;;;;;;;;;;6179047;28;20413;-61
2023/03/30 14:42:32;;;;;;;15.75;9.38;;;;;;;;;;6178542;28;20053;-61
2023/03/30 14:45:33;;;;;;;11.27;5.45;;;;;;;;;;6175229;28;20057;-58
2023/03/30 14:48:36;;;;;;;11.10;5.03;;;;;;;;;;6177088;28;20055;-61
2023/03/30 14:51:41;;;;;;;11.75;5.85;;;;;;;;;;6182007;28;20050;-60
2023/03/30 14:54:43;;;;;;;12.07;6.47;;;;;;;;;;6174551;28;20119;-60
2023/03/30 14:57:45;;;;;;;11.93;5.40;;;;;;;;;;6176768;28;20568;-60
2023/03/30 15:00:45;;;;;;;10.65;5.32;;;;;;;;;;6181274;28;20057;-60
2023/03/30 15:03:47;;;;;;;11.57;5.40;;;;;;;;;;6183539;28;20493;-62
2023/03/30 15:06:47;;;;;;;13.30;5.80;;;;;;;;;;6186466;28;20169;-57
2023/03/30 15:09:57;;;;;;;12.30;5.78;;;;;;;;;;6188840;28;20084;-59
2023/03/30 15:12:59;;;;;;;12.77;6.30;;;;;;;;;;6185180;28;20058;-58
2023/03/30 15:16:00;;;;;;;;;;;;;;;;;;6185480;28;20046;-59
2023/03/30 15:19:09;;;;;;;12.30;7.10;;;;;;;;;;6189254;28;19930;-59
2023/03/30 15:22:34;;;;;;;13.52;6.68;;;;;;;;;;6189250;28;20469;-57
2023/03/30 15:25:35;;;;;;;24.45;14.80;;;;;;;;;;6183257;28;20061;-57
2023/03/30 15:28:44;;;;;;;17.98;11.52;;;;;;;;;;6184056;28;20137;-61
2023/03/30 15:31:44;;;;;;;23.27;13.38;;;;;;;;;;6184902;28;20057;-60
2023/03/30 15:35:13;;;;;;;16.38;8.98;;;;;;;;;;6185955;28;20090;-58
2023/03/30 15:38:15;;;;;;;35.75;16.38;;;;;;;;;;6186412;28;20057;-60
2023/03/30 15:41:19;;;;;;;13.68;8.02;;;;;;;;;;6187170;28;20066;-60
2023/03/30 15:44:21;;;;;;;22.08;11.23;;;;;;;;;;6185805;28;20085;-61
2023/03/30 15:47:22;;;;;;;16.15;8.50;;;;;;;;;;6188125;28;20061;-60
2023/03/30 15:50:23;;;;;;;13.00;8.05;;;;;;;;;;6186268;28;20051;-61
2023/03/30 15:53:33;;;;;;;16.60;8.03;;;;;;;;;;6186016;28;20050;-60
2023/03/30 15:56:47;;;;;;;13.27;6.97;;;;;;;;;;6185902;28;20503;-61
2023/03/30 15:59:52;;;;;;;17.63;7.10;;;;;;;;;;6186167;28;20050;-61
2023/03/30 16:02:58;;;;;;;12.68;6.35;;;;;;;;;;6186024;28;20054;-61
2023/03/30 16:05:59;;;;;;;14.18;7.38;;;;;;;;;;6187152;28;20060;-61
2023/03/30 16:08:59;;;;;;;12.48;6.40;;;;;;;;;;6185887;28;20046;-59
2023/03/30 16:12:00;;;;;;;12.95;6.82;;;;;;;;;;6185067;28;20124;-59
2023/03/30 16:15:00;;;;;;;16.20;6.57;;;;;;;;;;6185642;28;20062;-61
2023/03/30 16:18:01;;;;;;;15.85;6.93;;;;;;;;;;6186440;28;20062;-61
2023/03/30 16:21:03;;;;;;;13.40;6.45;;;;;;;;;;6185265;28;20054;-61
2023/03/30 16:24:04;;;;;;;;;;;;;;;;;;6184308;28;20058;-61
2023/03/30 16:27:05;;;;;;;19.15;10.95;;;;;;;;;;6184966;28;19948;-60
2023/03/30 16:30:33;;;;;;;17.65;9.50;;;;;;;;;;6185797;28;20054;-60
2023/03/30 16:33:33;;;;;;;17.15;11.38;;;;;;;;;;6174379;28;20883;-60
2023/03/30 16:36:34;;;;;;;19.55;9.88;;;;;;;;;;6187501;28;20060;-56
2023/03/30 16:39:35;;;;;;;19.10;9.93;;;;;;;;;;6185288;28;20050;-54
2023/03/30 16:42:36;;;;;;;18.33;10.35;;;;;;;;;;6181756;28;20127;-60
2023/03/30 16:45:37;;;;;;;20.23;11.30;;;;;;;;;;6181589;28;20050;-57
2023/03/30 16:48:37;;;;;;;23.92;14.48;;;;;;;;;;6182583;28;20754;-59
2023/03/30 16:51:38;;;;;;;19.60;10.30;;;;;;;;;;6166893;28;20148;-58
2023/03/30 16:54:39;;;;;;;17.50;10.15;;;;;;;;;;6180122;28;20054;-56
2023/03/30 16:57:40;;;;;;;20.08;12.00;;;;;;;;;;6180667;28;20061;-56
2023/03/30 17:00:44;;;;;;;26.20;16.15;;;;;;;;;;6183455;28;20162;-55
2023/03/30 17:03:45;;;;;;;27.35;13.93;;;;;;;;;;6179424;28;20485;-54
2023/03/30 17:06:48;;;;;;;24.15;13.35;;;;;;;;;;6181819;28;20152;-54
2023/03/30 17:09:48;;;;;;;40.63;24.35;;;;;;;;;;6183535;28;20058;-56
2023/03/30 17:12:52;;;;;;;46.90;31.33;;;;;;;;;;6181858;28;20050;-56
2023/03/30 17:15:53;;;;;;;45.05;26.50;;;;;;;;;;6181277;28;20046;-54
2023/03/30 17:18:54;;;;;;;43.78;24.08;;;;;;;;;;6182427;28;20061;-56
2023/03/30 17:21:55;;;;;;;44.22;25.27;;;;;;;;;;6182852;28;20053;-57
2023/03/30 17:24:56;;;;;;;44.63;26.13;;;;;;;;;;6177132;28;20547;-53
2023/03/30 17:27:57;;;;;;;40.53;22.65;;;;;;;;;;6181357;28;20046;-60
2023/03/30 17:31:00;;;;;;;40.80;24.30;;;;;;;;;;6179693;28;20077;-56
2023/03/30 17:34:01;;;;;;;88.03;59.90;;;;;;;;;;6178835;28;20141;-54
2023/03/30 17:37:02;;;;;;;56.70;38.15;;;;;;;;;;6183460;28;20053;-56
2023/03/30 17:40:38;;;;;;;51.92;30.92;;;;;;;;;;6176139;28;20049;-56
2023/03/30 17:43:40;;;;;;;46.65;28.00;;;;;;;;;;6147901;28;20068;-60
2023/03/30 17:46:42;;;;;;;48.27;26.73;;;;;;;;;;6182995;28;20046;-55
2023/03/30 17:49:42;;;;;;;;;;;;;;;;;;6184071;28;20050;-52
2023/03/30 17:52:43;;;;;;;37.75;19.30;;;;;;;;;;6181621;28;19961;-54
2023/03/30 17:55:46;;;;;;;25.17;13.50;;;;;;;;;;6175064;28;20481;-55
2023/03/30 17:58:48;;;;;;;35.25;20.00;;;;;;;;;;6181097;28;20054;-50
2023/03/30 18:01:49;;;;;;;22.13;11.65;;;;;;;;;;6183597;28;20054;-57
2023/03/30 18:04:49;;;;;;;27.25;13.77;;;;;;;;;;6179035;28;20062;-51
2023/03/30 18:07:51;;;;;;;40.95;18.73;;;;;;;;;;6162751;28;20066;-68
2023/03/30 18:10:54;;;;;;;32.58;15.00;;;;;;;;;;6180318;28;20050;-53
2023/03/30 18:13:55;;;;;;;89.68;32.80;;;;;;;;;;6179079;28;20064;-55